sensor_id;sensor_type;location;lat;lon;timestamp;P1;durP1;ratioP1;P2;durP2;ratioP2
19645;SDS011;9971;52.446;13.452;2023-04-29T00:02:39;4.50;;;4.03;;
19645;SDS011;9971;52.446;13.452;2023-04-29T00:07:41;4.60;;;4.20;;
19645;SDS011;9971;52.446;13.452;2023-04-29T00:12:43;5.37;;;4.05;;
19645;SDS011;9971;52.446;13.452;2023-04-29T00:17:47;4.25;;;3.72;;
19645;SDS011;9971;52.446;13.452;2023-04-29T00:22:49;5.20;;;4.20;;
19645;SDS011;9971;52.446;13.452;2023-04-29T00:27:52;5.33;;;4.47;;
19645;SDS011;9971;52.446;13.452;2023-04-29T00:32:55;4.50;;;4.10;;
19645;SDS011;9971;52.446;13.452;2023-04-29T00:37:58;4.43;;;4.03;;
19645;SDS011;9971;52.446;13.452;2023-04-29T00:43:05;5.37;;;4.87;;
19645;SDS011;9971;52.446;13.452;2023-04-29T00:48:08;4.57;;;4.17;;
19645;SDS011;9971;52.446;13.452;2023-04-29T00:53:10;4.37;;;3.95;;
19645;SDS011;9971;52.446;13.452;2023-04-29T00:58:13;5.78;;;4.45;;
19645;SDS011;9971;52.446;13.452;2023-04-29T01:03:16;4.33;;;4.00;;
19645;SDS011;9971;52.446;13.452;2023-04-29T01:08:30;5.63;;;4.90;;
19645;SDS011;9971;52.446;13.452;2023-04-29T01:13:36;5.40;;;4.80;;
19645;SDS011;9971;52.446;13.452;2023-04-29T01:18:54;5.97;;;5.37;;
19645;SDS011;9971;52.446;13.452;2023-04-29T01:23:55;5.87;;;5.23;;
19645;SDS011;9971;52.446;13.452;2023-04-29T01:29:01;6.08;;;5.55;;
19645;SDS011;9971;52.446;13.452;2023-04-29T01:34:07;6.97;;;5.80;;
19645;SDS011;9971;52.446;13.452;2023-04-29T01:39:13;6.60;;;5.87;;
19645;SDS011;9971;52.446;13.452;2023-04-29T01:44:23;6.97;;;6.00;;
19645;SDS011;9971;52.446;13.452;2023-04-29T01:49:25;6.62;;;6.03;;
19645;SDS011;9971;52.446;13.452;2023-04-29T01:54:27;6.80;;;6.20;;
19645;SDS011;9971;52.446;13.452;2023-04-29T01:59:29;7.92;;;6.37;;
19645;SDS011;9971;52.446;13.452;2023-04-29T02:04:33;7.17;;;6.50;;
19645;SDS011;9971;52.446;13.452;2023-04-29T02:09:36;7.80;;;7.20;;
19645;SDS011;9971;52.446;13.452;2023-04-29T02:14:39;7.58;;;6.60;;
19645;SDS011;9971;52.446;13.452;2023-04-29T02:19:41;7.80;;;6.97;;
19645;SDS011;9971;52.446;13.452;2023-04-29T02:24:44;7.95;;;7.25;;
19645;SDS011;9971;52.446;13.452;2023-04-29T02:29:46;8.30;;;6.97;;
19645;SDS011;9971;52.446;13.452;2023-04-29T02:34:49;8.45;;;7.70;;
19645;SDS011;9971;52.446;13.452;2023-04-29T02:39:51;8.30;;;7.53;;
19645;SDS011;9971;52.446;13.452;2023-04-29T02:44:54;8.55;;;7.62;;
19645;SDS011;9971;52.446;13.452;2023-04-29T02:49:56;8.23;;;7.50;;
19645;SDS011;9971;52.446;13.452;2023-04-29T02:54:59;8.53;;;7.75;;
19645;SDS011;9971;52.446;13.452;2023-04-29T03:00:01;8.80;;;8.10;;
19645;SDS011;9971;52.446;13.452;2023-04-29T03:05:04;9.95;;;8.83;;
19645;SDS011;9971;52.446;13.452;2023-04-29T03:10:07;10.23;;;9.33;;
19645;SDS011;9971;52.446;13.452;2023-04-29T03:15:10;10.03;;;9.23;;
19645;SDS011;9971;52.446;13.452;2023-04-29T03:20:12;10.60;;;9.78;;
19645;SDS011;9971;52.446;13.452;2023-04-29T03:25:14;10.23;;;9.23;;
19645;SDS011;9971;52.446;13.452;2023-04-29T03:30:18;10.93;;;9.93;;
19645;SDS011;9971;52.446;13.452;2023-04-29T03:35:20;10.55;;;9.58;;
19645;SDS011;9971;52.446;13.452;2023-04-29T03:40:23;11.57;;;10.55;;
19645;SDS011;9971;52.446;13.452;2023-04-29T03:45:25;11.12;;;10.13;;
19645;SDS011;9971;52.446;13.452;2023-04-29T03:50:28;11.22;;;10.18;;
19645;SDS011;9971;52.446;13.452;2023-04-29T03:55:30;11.90;;;10.50;;
19645;SDS011;9971;52.446;13.452;2023-04-29T04:00:33;11.18;;;10.08;;
19645;SDS011;9971;52.446;13.452;2023-04-29T04:05:35;11.70;;;10.70;;
19645;SDS011;9971;52.446;13.452;2023-04-29T04:10:38;12.43;;;11.33;;
19645;SDS011;9971;52.446;13.452;2023-04-29T04:15:40;13.13;;;11.95;;
19645;SDS011;9971;52.446;13.452;2023-04-29T04:20:43;14.00;;;12.68;;
19645;SDS011;9971;52.446;13.452;2023-04-29T04:25:46;12.70;;;11.50;;
19645;SDS011;9971;52.446;13.452;2023-04-29T04:30:48;13.50;;;12.40;;
19645;SDS011;9971;52.446;13.452;2023-04-29T04:35:50;14.38;;;13.00;;
19645;SDS011;9971;52.446;13.452;2023-04-29T04:40:52;12.33;;;11.28;;
19645;SDS011;9971;52.446;13.452;2023-04-29T04:45:54;13.13;;;12.10;;
19645;SDS011;9971;52.446;13.452;2023-04-29T04:50:57;14.65;;;13.38;;
19645;SDS011;9971;52.446;13.452;2023-04-29T04:56:00;15.10;;;13.75;;
19645;SDS011;9971;52.446;13.452;2023-04-29T05:01:02;15.67;;;14.17;;
19645;SDS011;9971;52.446;13.452;2023-04-29T05:06:04;16.97;;;15.38;;
19645;SDS011;9971;52.446;13.452;2023-04-29T05:11:14;16.37;;;14.90;;
19645;SDS011;9971;52.446;13.452;2023-04-29T05:16:09;17.52;;;15.98;;
19645;SDS011;9971;52.446;13.452;2023-04-29T05:21:12;19.07;;;17.27;;
19645;SDS011;9971;52.446;13.452;2023-04-29T05:26:18;17.23;;;15.73;;
19645;SDS011;9971;52.446;13.452;2023-04-29T05:31:20;18.12;;;16.42;;
19645;SDS011;9971;52.446;13.452;2023-04-29T05:36:22;17.80;;;16.12;;
19645;SDS011;9971;52.446;13.452;2023-04-29T05:41:26;18.45;;;16.73;;
19645;SDS011;9971;52.446;13.452;2023-04-29T05:46:28;19.10;;;17.30;;
19645;SDS011;9971;52.446;13.452;2023-04-29T05:51:31;19.40;;;17.60;;
19645;SDS011;9971;52.446;13.452;2023-04-29T05:56:33;19.48;;;17.67;;
19645;SDS011;9971;52.446;13.452;2023-04-29T06:01:37;18.97;;;17.27;;
19645;SDS011;9971;52.446;13.452;2023-04-29T06:06:39;19.70;;;17.82;;
19645;SDS011;9971;52.446;13.452;2023-04-29T06:11:42;18.55;;;16.75;;
19645;SDS011;9971;52.446;13.452;2023-04-29T06:16:45;20.32;;;17.92;;
19645;SDS011;9971;52.446;13.452;2023-04-29T06:21:47;18.57;;;16.82;;
19645;SDS011;9971;52.446;13.452;2023-04-29T06:26:49;20.02;;;17.87;;
19645;SDS011;9971;52.446;13.452;2023-04-29T06:31:52;19.60;;;17.75;;
19645;SDS011;9971;52.446;13.452;2023-04-29T06:36:54;19.62;;;17.57;;
19645;SDS011;9971;52.446;13.452;2023-04-29T06:41:57;19.12;;;17.20;;
19645;SDS011;9971;52.446;13.452;2023-04-29T06:46:59;19.00;;;17.27;;
19645;SDS011;9971;52.446;13.452;2023-04-29T06:52:02;18.80;;;17.10;;
19645;SDS011;9971;52.446;13.452;2023-04-29T06:57:04;16.27;;;14.68;;
19645;SDS011;9971;52.446;13.452;2023-04-29T07:02:07;16.48;;;14.93;;
19645;SDS011;9971;52.446;13.452;2023-04-29T07:07:09;13.88;;;12.63;;
19645;SDS011;9971;52.446;13.452;2023-04-29T07:12:12;13.55;;;12.25;;
19645;SDS011;9971;52.446;13.452;2023-04-29T07:17:14;12.25;;;11.15;;
19645;SDS011;9971;52.446;13.452;2023-04-29T07:22:17;10.75;;;9.73;;
19645;SDS011;9971;52.446;13.452;2023-04-29T07:27:19;12.03;;;10.85;;
19645;SDS011;9971;52.446;13.452;2023-04-29T07:32:22;12.15;;;11.05;;
19645;SDS011;9971;52.446;13.452;2023-04-29T07:37:24;13.62;;;12.30;;
19645;SDS011;9971;52.446;13.452;2023-04-29T07:42:27;13.00;;;11.73;;
19645;SDS011;9971;52.446;13.452;2023-04-29T07:47:29;14.95;;;13.00;;
19645;SDS011;9971;52.446;13.452;2023-04-29T07:52:32;15.55;;;14.00;;
19645;SDS011;9971;52.446;13.452;2023-04-29T07:57:34;14.17;;;12.70;;
19645;SDS011;9971;52.446;13.452;2023-04-29T08:02:37;13.20;;;11.97;;
19645;SDS011;9971;52.446;13.452;2023-04-29T08:07:39;13.65;;;11.57;;
19645;SDS011;9971;52.446;13.452;2023-04-29T08:12:45;14.30;;;12.82;;
19645;SDS011;9971;52.446;13.452;2023-04-29T08:17:47;11.93;;;10.83;;
19645;SDS011;9971;52.446;13.452;2023-04-29T08:22:49;11.78;;;10.68;;
19645;SDS011;9971;52.446;13.452;2023-04-29T08:27:51;10.95;;;9.85;;
19645;SDS011;9971;52.446;13.452;2023-04-29T08:32:54;9.38;;;8.55;;
19645;SDS011;9971;52.446;13.452;2023-04-29T08:37:56;9.00;;;8.20;;
19645;SDS011;9971;52.446;13.452;2023-04-29T08:42:59;8.03;;;7.37;;
19645;SDS011;9971;52.446;13.452;2023-04-29T08:48:01;9.43;;;8.67;;
19645;SDS011;9971;52.446;13.452;2023-04-29T08:53:04;9.90;;;9.00;;
19645;SDS011;9971;52.446;13.452;2023-04-29T08:58:06;9.43;;;8.63;;
19645;SDS011;9971;52.446;13.452;2023-04-29T09:03:14;9.93;;;9.10;;
19645;SDS011;9971;52.446;13.452;2023-04-29T09:08:22;10.63;;;9.53;;
19645;SDS011;9971;52.446;13.452;2023-04-29T09:13:23;9.87;;;9.07;;
19645;SDS011;9971;52.446;13.452;2023-04-29T09:23:39;10.53;;;9.53;;
19645;SDS011;9971;52.446;13.452;2023-04-29T09:28:42;11.53;;;10.43;;
19645;SDS011;9971;52.446;13.452;2023-04-29T09:33:50;11.55;;;10.45;;
19645;SDS011;9971;52.446;13.452;2023-04-29T09:38:53;11.33;;;10.30;;
19645;SDS011;9971;52.446;13.452;2023-04-29T09:54:20;13.40;;;12.10;;
19645;SDS011;9971;52.446;13.452;2023-04-29T09:59:24;14.47;;;13.00;;
19645;SDS011;9971;52.446;13.452;2023-04-29T10:04:26;17.07;;;14.77;;
19645;SDS011;9971;52.446;13.452;2023-04-29T10:09:28;18.17;;;16.37;;
19645;SDS011;9971;52.446;13.452;2023-04-29T10:14:31;18.13;;;16.20;;
19645;SDS011;9971;52.446;13.452;2023-04-29T10:19:33;18.95;;;16.97;;
19645;SDS011;9971;52.446;13.452;2023-04-29T10:24:35;23.92;;;20.75;;
19645;SDS011;9971;52.446;13.452;2023-04-29T10:54:38;29.87;;;26.48;;
19645;SDS011;9971;52.446;13.452;2023-04-29T11:29:54;19.33;;;17.47;;
19645;SDS011;9971;52.446;13.452;2023-04-29T11:40:08;17.40;;;15.80;;
19645;SDS011;9971;52.446;13.452;2023-04-29T11:45:10;18.98;;;16.82;;
19645;SDS011;9971;52.446;13.452;2023-04-29T11:50:12;15.88;;;14.28;;
19645;SDS011;9971;52.446;13.452;2023-04-29T11:55:14;17.00;;;14.83;;
19645;SDS011;9971;52.446;13.452;2023-04-29T12:00:16;15.28;;;13.80;;
19645;SDS011;9971;52.446;13.452;2023-04-29T12:05:18;13.60;;;12.40;;
19645;SDS011;9971;52.446;13.452;2023-04-29T12:10:21;12.33;;;11.28;;
19645;SDS011;9971;52.446;13.452;2023-04-29T12:15:23;12.53;;;11.38;;
19645;SDS011;9971;52.446;13.452;2023-04-29T12:20:26;11.87;;;10.83;;
19645;SDS011;9971;52.446;13.452;2023-04-29T12:25:29;11.75;;;10.55;;
19645;SDS011;9971;52.446;13.452;2023-04-29T12:30:33;11.08;;;9.98;;
19645;SDS011;9971;52.446;13.452;2023-04-29T12:35:33;10.77;;;9.73;;
19645;SDS011;9971;52.446;13.452;2023-04-29T12:40:35;13.13;;;10.63;;
19645;SDS011;9971;52.446;13.452;2023-04-29T12:45:38;11.17;;;10.07;;
19645;SDS011;9971;52.446;13.452;2023-04-29T12:50:39;10.30;;;9.33;;
19645;SDS011;9971;52.446;13.452;2023-04-29T12:55:42;10.55;;;9.55;;
19645;SDS011;9971;52.446;13.452;2023-04-29T13:00:44;10.53;;;9.58;;
19645;SDS011;9971;52.446;13.452;2023-04-29T13:05:47;10.08;;;9.13;;
19645;SDS011;9971;52.446;13.452;2023-04-29T13:10:53;9.43;;;8.48;;
19645;SDS011;9971;52.446;13.452;2023-04-29T13:15:56;8.30;;;7.50;;
19645;SDS011;9971;52.446;13.452;2023-04-29T13:20:59;7.50;;;6.60;;
19645;SDS011;9971;52.446;13.452;2023-04-29T13:26:02;6.97;;;6.30;;
19645;SDS011;9971;52.446;13.452;2023-04-29T13:31:04;5.47;;;5.07;;
19645;SDS011;9971;52.446;13.452;2023-04-29T13:36:07;5.07;;;4.60;;
19645;SDS011;9971;52.446;13.452;2023-04-29T13:41:10;3.85;;;3.47;;
19645;SDS011;9971;52.446;13.452;2023-04-29T13:46:14;4.40;;;4.00;;
19645;SDS011;9971;52.446;13.452;2023-04-29T13:51:18;4.17;;;3.87;;
19645;SDS011;9971;52.446;13.452;2023-04-29T13:56:20;3.60;;;3.30;;
19645;SDS011;9971;52.446;13.452;2023-04-29T14:01:22;3.83;;;3.50;;
19645;SDS011;9971;52.446;13.452;2023-04-29T14:06:25;4.10;;;3.80;;
19645;SDS011;9971;52.446;13.452;2023-04-29T14:11:28;4.93;;;4.43;;
19645;SDS011;9971;52.446;13.452;2023-04-29T14:16:30;5.95;;;5.40;;
19645;SDS011;9971;52.446;13.452;2023-04-29T14:21:33;5.42;;;4.92;;
19645;SDS011;9971;52.446;13.452;2023-04-29T14:26:35;6.42;;;5.30;;
19645;SDS011;9971;52.446;13.452;2023-04-29T14:31:38;5.92;;;5.03;;
19645;SDS011;9971;52.446;13.452;2023-04-29T14:36:41;5.12;;;4.67;;
19645;SDS011;9971;52.446;13.452;2023-04-29T14:41:43;7.08;;;5.35;;
19645;SDS011;9971;52.446;13.452;2023-04-29T14:46:46;6.23;;;5.63;;
19645;SDS011;9971;52.446;13.452;2023-04-29T14:51:48;6.33;;;4.78;;
19645;SDS011;9971;52.446;13.452;2023-04-29T14:56:51;5.15;;;4.45;;
19645;SDS011;9971;52.446;13.452;2023-04-29T15:01:53;5.20;;;4.70;;
19645;SDS011;9971;52.446;13.452;2023-04-29T15:06:55;7.83;;;4.80;;
19645;SDS011;9971;52.446;13.452;2023-04-29T15:11:58;5.58;;;4.37;;
19645;SDS011;9971;52.446;13.452;2023-04-29T15:17:03;4.83;;;4.43;;
19645;SDS011;9971;52.446;13.452;2023-04-29T15:22:06;6.23;;;4.77;;
19645;SDS011;9971;52.446;13.452;2023-04-29T15:27:10;5.80;;;4.90;;
19645;SDS011;9971;52.446;13.452;2023-04-29T15:32:13;5.43;;;4.40;;
19645;SDS011;9971;52.446;13.452;2023-04-29T15:37:15;5.37;;;4.10;;
19645;SDS011;9971;52.446;13.452;2023-04-29T15:42:18;4.22;;;3.83;;
19645;SDS011;9971;52.446;13.452;2023-04-29T15:47:20;3.67;;;3.37;;
19645;SDS011;9971;52.446;13.452;2023-04-29T15:52:24;4.70;;;3.65;;
19645;SDS011;9971;52.446;13.452;2023-04-29T15:57:26;3.60;;;3.30;;
19645;SDS011;9971;52.446;13.452;2023-04-29T16:02:29;4.17;;;3.30;;
19645;SDS011;9971;52.446;13.452;2023-04-29T16:07:31;4.58;;;3.70;;
19645;SDS011;9971;52.446;13.452;2023-04-29T16:12:38;5.47;;;3.80;;
19645;SDS011;9971;52.446;13.452;2023-04-29T16:17:40;4.53;;;3.80;;
19645;SDS011;9971;52.446;13.452;2023-04-29T16:22:43;7.10;;;4.40;;
19645;SDS011;9971;52.446;13.452;2023-04-29T16:27:45;5.03;;;3.80;;
19645;SDS011;9971;52.446;13.452;2023-04-29T16:32:48;5.15;;;4.30;;
19645;SDS011;9971;52.446;13.452;2023-04-29T16:37:51;4.72;;;3.95;;
19645;SDS011;9971;52.446;13.452;2023-04-29T16:42:52;4.43;;;4.03;;
19645;SDS011;9971;52.446;13.452;2023-04-29T16:47:55;5.10;;;4.17;;
19645;SDS011;9971;52.446;13.452;2023-04-29T16:52:58;4.95;;;4.10;;
19645;SDS011;9971;52.446;13.452;2023-04-29T16:58:00;5.05;;;4.00;;
19645;SDS011;9971;52.446;13.452;2023-04-29T17:03:02;4.97;;;4.22;;
19645;SDS011;9971;52.446;13.452;2023-04-29T17:08:04;5.87;;;3.97;;
19645;SDS011;9971;52.446;13.452;2023-04-29T17:13:07;4.43;;;4.03;;
19645;SDS011;9971;52.446;13.452;2023-04-29T17:18:11;5.73;;;3.47;;
19645;SDS011;9971;52.446;13.452;2023-04-29T17:23:14;4.00;;;2.83;;
19645;SDS011;9971;52.446;13.452;2023-04-29T17:28:16;3.20;;;2.40;;
19645;SDS011;9971;52.446;13.452;2023-04-29T17:33:19;3.52;;;2.42;;
19645;SDS011;9971;52.446;13.452;2023-04-29T17:38:21;4.33;;;2.00;;
19645;SDS011;9971;52.446;13.452;2023-04-29T17:43:23;4.55;;;2.90;;
19645;SDS011;9971;52.446;13.452;2023-04-29T17:48:26;3.25;;;2.37;;
19645;SDS011;9971;52.446;13.452;2023-04-29T17:53:28;2.90;;;2.47;;
19645;SDS011;9971;52.446;13.452;2023-04-29T17:58:31;3.33;;;2.52;;
19645;SDS011;9971;52.446;13.452;2023-04-29T18:03:35;4.90;;;2.50;;
19645;SDS011;9971;52.446;13.452;2023-04-29T18:08:37;3.30;;;2.65;;
19645;SDS011;9971;52.446;13.452;2023-04-29T18:13:40;7.12;;;6.50;;
19645;SDS011;9971;52.446;13.452;2023-04-29T18:18:42;6.85;;;5.95;;
19645;SDS011;9971;52.446;13.452;2023-04-29T18:23:44;1.85;;;1.67;;
19645;SDS011;9971;52.446;13.452;2023-04-29T18:28:47;4.10;;;3.37;;
19645;SDS011;9971;52.446;13.452;2023-04-29T18:33:49;3.40;;;3.10;;
19645;SDS011;9971;52.446;13.452;2023-04-29T18:38:51;3.08;;;2.40;;
19645;SDS011;9971;52.446;13.452;2023-04-29T18:43:54;2.72;;;2.45;;
19645;SDS011;9971;52.446;13.452;2023-04-29T18:48:56;3.37;;;1.98;;
19645;SDS011;9971;52.446;13.452;2023-04-29T18:54:04;2.97;;;1.97;;
19645;SDS011;9971;52.446;13.452;2023-04-29T18:59:06;2.67;;;1.80;;
19645;SDS011;9971;52.446;13.452;2023-04-29T19:04:08;2.77;;;1.82;;
19645;SDS011;9971;52.446;13.452;2023-04-29T19:09:12;3.20;;;1.90;;
19645;SDS011;9971;52.446;13.452;2023-04-29T19:14:15;2.52;;;2.33;;
19645;SDS011;9971;52.446;13.452;2023-04-29T19:19:17;2.90;;;2.50;;
19645;SDS011;9971;52.446;13.452;2023-04-29T19:24:20;3.20;;;2.25;;
19645;SDS011;9971;52.446;13.452;2023-04-29T19:29:22;2.40;;;2.15;;
19645;SDS011;9971;52.446;13.452;2023-04-29T19:34:25;2.90;;;2.30;;
19645;SDS011;9971;52.446;13.452;2023-04-29T19:39:27;3.15;;;2.45;;
19645;SDS011;9971;52.446;13.452;2023-04-29T19:44:29;3.27;;;2.47;;
19645;SDS011;9971;52.446;13.452;2023-04-29T19:49:32;4.25;;;2.42;;
19645;SDS011;9971;52.446;13.452;2023-04-29T19:54:35;2.65;;;2.27;;
19645;SDS011;9971;52.446;13.452;2023-04-29T19:59:37;2.40;;;2.03;;
19645;SDS011;9971;52.446;13.452;2023-04-29T20:04:39;2.75;;;2.52;;
19645;SDS011;9971;52.446;13.452;2023-04-29T20:09:42;2.75;;;2.40;;
19645;SDS011;9971;52.446;13.452;2023-04-29T20:14:45;2.95;;;2.55;;
19645;SDS011;9971;52.446;13.452;2023-04-29T20:19:48;3.50;;;2.77;;
19645;SDS011;9971;52.446;13.452;2023-04-29T20:24:50;3.17;;;2.83;;
19645;SDS011;9971;52.446;13.452;2023-04-29T20:29:53;4.67;;;2.50;;
19645;SDS011;9971;52.446;13.452;2023-04-29T20:34:55;3.70;;;2.92;;
19645;SDS011;9971;52.446;13.452;2023-04-29T20:39:58;3.40;;;2.52;;
19645;SDS011;9971;52.446;13.452;2023-04-29T20:45:00;3.15;;;2.55;;
19645;SDS011;9971;52.446;13.452;2023-04-29T20:50:03;4.55;;;3.00;;
19645;SDS011;9971;52.446;13.452;2023-04-29T20:55:05;2.95;;;2.62;;
19645;SDS011;9971;52.446;13.452;2023-04-29T21:00:08;3.17;;;2.87;;
19645;SDS011;9971;52.446;13.452;2023-04-29T21:05:11;2.80;;;2.55;;
19645;SDS011;9971;52.446;13.452;2023-04-29T21:10:13;3.33;;;3.00;;
19645;SDS011;9971;52.446;13.452;2023-04-29T21:15:16;3.75;;;2.95;;
19645;SDS011;9971;52.446;13.452;2023-04-29T21:20:18;3.10;;;2.80;;
19645;SDS011;9971;52.446;13.452;2023-04-29T21:25:21;3.70;;;3.05;;
19645;SDS011;9971;52.446;13.452;2023-04-29T21:30:23;4.13;;;3.70;;
19645;SDS011;9971;52.446;13.452;2023-04-29T21:35:25;5.50;;;4.53;;
19645;SDS011;9971;52.446;13.452;2023-04-29T21:40:28;5.33;;;4.12;;
19645;SDS011;9971;52.446;13.452;2023-04-29T21:45:30;5.35;;;4.70;;
19645;SDS011;9971;52.446;13.452;2023-04-29T21:50:33;5.23;;;4.47;;
19645;SDS011;9971;52.446;13.452;2023-04-29T21:55:36;5.20;;;4.28;;
19645;SDS011;9971;52.446;13.452;2023-04-29T22:00:37;4.50;;;4.10;;
19645;SDS011;9971;52.446;13.452;2023-04-29T22:05:39;5.30;;;3.33;;
19645;SDS011;9971;52.446;13.452;2023-04-29T22:10:42;3.62;;;3.10;;
19645;SDS011;9971;52.446;13.452;2023-04-29T22:15:44;3.40;;;2.72;;
19645;SDS011;9971;52.446;13.452;2023-04-29T22:20:47;4.33;;;2.98;;
19645;SDS011;9971;52.446;13.452;2023-04-29T22:25:49;3.65;;;2.67;;
19645;SDS011;9971;52.446;13.452;2023-04-29T22:30:51;3.08;;;2.47;;
19645;SDS011;9971;52.446;13.452;2023-04-29T22:35:54;2.10;;;1.92;;
19645;SDS011;9971;52.446;13.452;2023-04-29T22:40:57;2.40;;;2.10;;
19645;SDS011;9971;52.446;13.452;2023-04-29T22:45:59;3.47;;;2.20;;
19645;SDS011;9971;52.446;13.452;2023-04-29T22:51:01;3.60;;;2.33;;
19645;SDS011;9971;52.446;13.452;2023-04-29T22:56:04;3.02;;;2.15;;
19645;SDS011;9971;52.446;13.452;2023-04-29T23:01:06;3.35;;;2.33;;
19645;SDS011;9971;52.446;13.452;2023-04-29T23:06:09;4.08;;;2.12;;
19645;SDS011;9971;52.446;13.452;2023-04-29T23:11:11;5.28;;;2.25;;
19645;SDS011;9971;52.446;13.452;2023-04-29T23:16:14;3.42;;;2.58;;
19645;SDS011;9971;52.446;13.452;2023-04-29T23:21:16;6.08;;;2.50;;
19645;SDS011;9971;52.446;13.452;2023-04-29T23:26:19;3.55;;;2.25;;
19645;SDS011;9971;52.446;13.452;2023-04-29T23:31:21;2.98;;;2.25;;
19645;SDS011;9971;52.446;13.452;2023-04-29T23:36:24;5.42;;;2.45;;
19645;SDS011;9971;52.446;13.452;2023-04-29T23:41:26;2.33;;;1.97;;
19645;SDS011;9971;52.446;13.452;2023-04-29T23:46:28;3.10;;;2.08;;
19645;SDS011;9971;52.446;13.452;2023-04-29T23:51:31;5.35;;;1.92;;
19645;SDS011;9971;52.446;13.452;2023-04-29T23:56:33;3.62;;;1.87;;
